<?xml version='1.0' encoding='UTF-8'?><gpx version="1.1" creator="JPX - https://github.com/jenetics/jpx" xmlns="http://www.topografix.com/GPX/1/1"><trk><trkseg><trkpt lat="44.67684029439367" lon="8.465975551769734"><ele>163.0</ele><time>2026-04-16T11:14:48.475Z</time></trkpt><trkpt lat="44.67682014329538" lon="8.465814129319874"><ele>163.0</ele><time>2026-04-16T11:14:53.475Z</time></trkpt><trkpt lat="44.67677149694165" lon="8.465734856592144"><ele>163.0</ele><time>2026-04-16T11:15:02.475Z</time></trkpt><trkpt lat="44.67670951184519" lon="8.46568561123858"><ele>163.0</ele><time>2026-04-16T11:15:08.475Z</time></trkpt><trkpt lat="44.67664951606051" lon="8.465656404448598"><ele>163.0</ele><time>2026-04-16T11:15:13.003Z</time></trkpt><trkpt lat="44.67658815358465" lon="8.465626477324816"><ele>163.0</ele><time>2026-04-16T11:15:22.003Z</time></trkpt><trkpt lat="44.67659955933059" lon="8.465717889789493"><ele>163.0</ele><time>2026-04-16T11:15:36.003Z</time></trkpt><trkpt lat="44.67663698543898" lon="8.465806290357422"><ele>163.0</ele><time>2026-04-16T11:15:40.003Z</time></trkpt><trkpt lat="44.67669700125384" lon="8.465848611011463"><ele>163.0</ele><time>2026-04-16T11:15:46.003Z</time></trkpt><trkpt lat="44.67675849049161" lon="8.465896611386771"><ele>163.0</ele><time>2026-04-16T11:15:51.003Z</time></trkpt><trkpt lat="44.676815910951966" lon="8.465954974151144"><ele>163.0</ele><time>2026-04-16T11:15:57.003Z</time></trkpt><trkpt lat="44.67684888598451" lon="8.46604378307757"><ele>163.0</ele><time>2026-04-16T11:16:00.003Z</time></trkpt><trkpt lat="44.676905309390975" lon="8.466120090151858"><ele>163.0</ele><time>2026-04-16T11:16:05.003Z</time></trkpt><trkpt lat="44.67696311331219" lon="8.466189230797479"><ele>163.0</ele><time>2026-04-16T11:16:11.003Z</time></trkpt><trkpt lat="44.677000636842784" lon="8.466265708978339"><ele>163.0</ele><time>2026-04-16T11:16:17.003Z</time></trkpt><trkpt lat="44.67702805562391" lon="8.466357921519148"><ele>163.0</ele><time>2026-04-16T11:16:24.003Z</time></trkpt><trkpt lat="44.67707348312602" lon="8.46644589101477"><ele>163.0</ele><time>2026-04-16T11:16:30.003Z</time></trkpt><trkpt lat="44.67712278775619" lon="8.46650906094339"><ele>163.0</ele><time>2026-04-16T11:16:35.002Z</time></trkpt><trkpt lat="44.67716715460619" lon="8.466582251464144"><ele>163.0</ele><time>2026-04-16T11:16:40.002Z</time></trkpt><trkpt lat="44.67720038032147" lon="8.466670538950632"><ele>163.0</ele><time>2026-04-16T11:16:46.002Z</time></trkpt><trkpt lat="44.677240806796114" lon="8.466751527213718"><ele>163.0</ele><time>2026-04-16T11:16:51.002Z</time></trkpt><trkpt lat="44.677261997244955" lon="8.466844316426709"><ele>163.0</ele><time>2026-04-16T11:16:57.003Z</time></trkpt><trkpt lat="44.6772990074994" lon="8.466928130268224"><ele>163.0</ele><time>2026-04-16T11:17:02.002Z</time></trkpt><trkpt lat="44.67733531006251" lon="8.467010735013119"><ele>163.0</ele><time>2026-04-16T11:17:07.002Z</time></trkpt><trkpt lat="44.67737353968948" lon="8.467099824436781"><ele>163.0</ele><time>2026-04-16T11:17:13.001Z</time></trkpt><trkpt lat="44.67737429313508" lon="8.467206090275988"><ele>163.0</ele><time>2026-04-16T11:17:20.001Z</time></trkpt><trkpt lat="44.677312080931706" lon="8.467244469864468"><ele>163.0</ele><time>2026-04-16T11:17:33Z</time></trkpt><trkpt lat="44.677242733692175" lon="8.467260875375457"><ele>163.33333333333334</ele><time>2026-04-16T11:17:40Z</time></trkpt><trkpt lat="44.67720259792983" lon="8.467349882197395"><ele>163.66666666666669</ele><time>2026-04-16T11:17:45Z</time></trkpt><trkpt lat="44.677201416053414" lon="8.467448183721485"><ele>164.0</ele><time>2026-04-16T11:17:50Z</time></trkpt><trkpt lat="44.67719725429213" lon="8.467556159865653"><ele>164.33333333333334</ele><time>2026-04-16T11:17:55.999Z</time></trkpt><trkpt lat="44.677197244386925" lon="8.467671523053415"><ele>164.66666666666666</ele><time>2026-04-16T11:18:02.999Z</time></trkpt><trkpt lat="44.67718494705173" lon="8.467774320345125"><ele>165.0</ele><time>2026-04-16T11:18:06.999Z</time></trkpt><trkpt lat="44.677171596617555" lon="8.467890844177948"><ele>165.00000000000003</ele><time>2026-04-16T11:18:11.999Z</time></trkpt><trkpt lat="44.677135218509925" lon="8.467979453249585"><ele>165.0</ele><time>2026-04-16T11:18:17.999Z</time></trkpt><trkpt lat="44.67709340266288" lon="8.468061952973764"><ele>165.0</ele><time>2026-04-16T11:18:23.999Z</time></trkpt><trkpt lat="44.677086983564955" lon="8.46815269559377"><ele>165.0</ele><time>2026-04-16T11:18:28.999Z</time></trkpt><trkpt lat="44.67708394520792" lon="8.468250932247713"><ele>165.0</ele><time>2026-04-16T11:18:33.999Z</time></trkpt><trkpt lat="44.67706109529184" lon="8.468341647837827"><ele>165.00000000000003</ele><time>2026-04-16T11:18:39.999Z</time></trkpt><trkpt lat="44.67702643983126" lon="8.468421269247374"><ele>165.0</ele><time>2026-04-16T11:18:46.999Z</time></trkpt><trkpt lat="44.6769919594734" lon="8.4685106809169"><ele>165.00000000000003</ele><time>2026-04-16T11:18:52.999Z</time></trkpt><trkpt lat="44.676970041678636" lon="8.4686112633359"><ele>165.0</ele><time>2026-04-16T11:18:58.999Z</time></trkpt><trkpt lat="44.67697315730553" lon="8.468719661727208"><ele>165.0</ele><time>2026-04-16T11:19:04.999Z</time></trkpt><trkpt lat="44.67696485473893" lon="8.468813191417127"><ele>165.0</ele><time>2026-04-16T11:19:09.999Z</time></trkpt><trkpt lat="44.67694817115073" lon="8.468907094258524"><ele>165.0</ele><time>2026-04-16T11:19:16Z</time></trkpt><trkpt lat="44.67696003432742" lon="8.469004818054492"><ele>165.00000000000003</ele><time>2026-04-16T11:19:21Z</time></trkpt><trkpt lat="44.67695393011375" lon="8.469102552733313"><ele>165.0</ele><time>2026-04-16T11:19:26Z</time></trkpt><trkpt lat="44.676948300414786" lon="8.469209933383185"><ele>165.00000000000003</ele><time>2026-04-16T11:19:32Z</time></trkpt><trkpt lat="44.676937370534404" lon="8.469304105107843"><ele>165.0</ele><time>2026-04-16T11:19:37Z</time></trkpt><trkpt lat="44.67691304112496" lon="8.469397449602113"><ele>165.0</ele><time>2026-04-16T11:19:43Z</time></trkpt><trkpt lat="44.6768964663192" lon="8.469482914497776"><ele>165.0</ele><time>2026-04-16T11:19:48Z</time></trkpt><trkpt lat="44.67688355014644" lon="8.46957075041855"><ele>165.0</ele><time>2026-04-16T11:19:53Z</time></trkpt><trkpt lat="44.67687208065412" lon="8.469667382580496"><ele>165.00000000000003</ele><time>2026-04-16T11:19:58.999Z</time></trkpt><trkpt lat="44.67686208172723" lon="8.469765066137278"><ele>165.0</ele><time>2026-04-16T11:20:04.999Z</time></trkpt><trkpt lat="44.676846644512246" lon="8.469860831991266"><ele>165.2857142857143</ele><time>2026-04-16T11:20:10.999Z</time></trkpt><trkpt lat="44.67682171814915" lon="8.469958298757795"><ele>165.57142857142858</ele><time>2026-04-16T11:20:16.999Z</time></trkpt><trkpt lat="44.67681943218873" lon="8.470056235926926"><ele>165.85714285714286</ele><time>2026-04-16T11:20:22.999Z</time></trkpt><trkpt lat="44.676797885366746" lon="8.470146885642617"><ele>166.14285714285717</ele><time>2026-04-16T11:20:28.999Z</time></trkpt><trkpt lat="44.67678479637561" lon="8.470247955399264"><ele>166.42857142857144</ele><time>2026-04-16T11:20:34.999Z</time></trkpt><trkpt lat="44.67677822952976" lon="8.470347434892773"><ele>166.71428571428572</ele><time>2026-04-16T11:20:40.999Z</time></trkpt><trkpt lat="44.67675859006705" lon="8.47044006217507"><ele>167.0</ele><time>2026-04-16T11:20:46.999Z</time></trkpt><trkpt lat="44.67673680726098" lon="8.470539504721122"><ele>167.0</ele><time>2026-04-16T11:20:53.999Z</time></trkpt><trkpt lat="44.67672903457235" lon="8.470628984686668"><ele>167.0</ele><time>2026-04-16T11:20:59.999Z</time></trkpt><trkpt lat="44.67671553275822" lon="8.470717905706456"><ele>167.0</ele><time>2026-04-16T11:21:04.999Z</time></trkpt><trkpt lat="44.67669468541981" lon="8.470804605588423"><ele>167.0</ele><time>2026-04-16T11:21:11Z</time></trkpt><trkpt lat="44.67673802139368" lon="8.470872784766442"><ele>167.0</ele><time>2026-04-16T11:21:17Z</time></trkpt><trkpt lat="44.67670849490803" lon="8.470971561227183"><ele>167.0</ele><time>2026-04-16T11:21:25Z</time></trkpt><trkpt lat="44.67665148384698" lon="8.471013548289717"><ele>167.0</ele><time>2026-04-16T11:21:30Z</time></trkpt><trkpt lat="44.67657856291305" lon="8.471029642456584"><ele>167.0</ele><time>2026-04-16T11:21:36Z</time></trkpt><trkpt lat="44.67652495555254" lon="8.47108678796205"><ele>167.0</ele><time>2026-04-16T11:21:42Z</time></trkpt><trkpt lat="44.67651119374681" lon="8.471189217570961"><ele>167.0</ele><time>2026-04-16T11:21:48Z</time></trkpt><trkpt lat="44.67652233972615" lon="8.471288136875057"><ele>167.0</ele><time>2026-04-16T11:21:54Z</time></trkpt><trkpt lat="44.67646402489179" lon="8.471359945850647"><ele>167.0</ele><time>2026-04-16T11:22:00Z</time></trkpt><trkpt lat="44.67640100271878" lon="8.471406793007823"><ele>167.0</ele><time>2026-04-16T11:22:05Z</time></trkpt><trkpt lat="44.67634657965764" lon="8.471465882293387"><ele>167.0</ele><time>2026-04-16T11:22:10Z</time></trkpt><trkpt lat="44.67631594640852" lon="8.471551339147531"><ele>167.14285714285714</ele><time>2026-04-16T11:22:15Z</time></trkpt><trkpt lat="44.67627409641166" lon="8.471629733308013"><ele>167.28571428571428</ele><time>2026-04-16T11:22:20.999Z</time></trkpt><trkpt lat="44.676237271449125" lon="8.471707229184954"><ele>167.42857142857144</ele><time>2026-04-16T11:22:26.999Z</time></trkpt><trkpt lat="44.67621322628334" lon="8.471801077982793"><ele>167.57142857142856</ele><time>2026-04-16T11:22:31.999Z</time></trkpt><trkpt lat="44.67617767233994" lon="8.471879465059972"><ele>167.71428571428572</ele><time>2026-04-16T11:22:36.999Z</time></trkpt><trkpt lat="44.67613739836367" lon="8.471961784587705"><ele>167.85714285714286</ele><time>2026-04-16T11:22:43.999Z</time></trkpt><trkpt lat="44.67608626233115" lon="8.472037267072926"><ele>168.0</ele><time>2026-04-16T11:22:48.999Z</time></trkpt><trkpt lat="44.67604717093628" lon="8.472111322168104"><ele>168.71428571428572</ele><time>2026-04-16T11:22:53.999Z</time></trkpt><trkpt lat="44.6760044043936" lon="8.472197110889608"><ele>169.42857142857144</ele><time>2026-04-16T11:22:59.999Z</time></trkpt><trkpt lat="44.67597137625909" lon="8.472280405108801"><ele>170.14285714285714</ele><time>2026-04-16T11:23:05.999Z</time></trkpt><trkpt lat="44.675923974145306" lon="8.472339189307261"><ele>170.85714285714286</ele><time>2026-04-16T11:23:11.999Z</time></trkpt><trkpt lat="44.675878355202656" lon="8.472416058153623"><ele>171.57142857142858</ele><time>2026-04-16T11:23:17Z</time></trkpt><trkpt lat="44.675852730956535" lon="8.47250521087232"><ele>172.28571428571428</ele><time>2026-04-16T11:23:23Z</time></trkpt><trkpt lat="44.67583232458827" lon="8.472593164654851"><ele>173.0</ele><time>2026-04-16T11:23:29Z</time></trkpt><trkpt lat="44.67576734467749" lon="8.472654546205199"><ele>173.0</ele><time>2026-04-16T11:23:35Z</time></trkpt><trkpt lat="44.67571479203233" lon="8.472707018029135"><ele>173.0</ele><time>2026-04-16T11:23:40Z</time></trkpt><trkpt lat="44.67567086918266" lon="8.472775922432454"><ele>173.0</ele><time>2026-04-16T11:23:46Z</time></trkpt><trkpt lat="44.6756186876347" lon="8.472830091335016"><ele>173.0</ele><time>2026-04-16T11:23:51Z</time></trkpt><trkpt lat="44.6755613180214" lon="8.472878743709561"><ele>173.0</ele><time>2026-04-16T11:23:57Z</time></trkpt><trkpt lat="44.67552616155529" lon="8.472973613017304"><ele>173.0</ele><time>2026-04-16T11:24:02Z</time></trkpt><trkpt lat="44.67550336503755" lon="8.47305635616092"><ele>173.0</ele><time>2026-04-16T11:24:06Z</time></trkpt><trkpt lat="44.67545826312184" lon="8.473137200425208"><ele>173.42857142857142</ele><time>2026-04-16T11:24:13Z</time></trkpt><trkpt lat="44.67541569890001" lon="8.47322435510184"><ele>173.85714285714286</ele><time>2026-04-16T11:24:19Z</time></trkpt><trkpt lat="44.67538016081355" lon="8.473319516887718"><ele>174.28571428571428</ele><time>2026-04-16T11:24:25Z</time></trkpt><trkpt lat="44.67536843932812" lon="8.473407046854742"><ele>174.71428571428572</ele><time>2026-04-16T11:24:28.999Z</time></trkpt><trkpt lat="44.67532902924704" lon="8.473485627142878"><ele>175.14285714285714</ele><time>2026-04-16T11:24:33.999Z</time></trkpt><trkpt lat="44.675285363367166" lon="8.473566027140572"><ele>175.57142857142858</ele><time>2026-04-16T11:24:40.999Z</time></trkpt><trkpt lat="44.675250582589314" lon="8.473641386088747"><ele>176.0</ele><time>2026-04-16T11:24:45.999Z</time></trkpt><trkpt lat="44.67521025884451" lon="8.473721789951174"><ele>176.85714285714286</ele><time>2026-04-16T11:24:50.999Z</time></trkpt><trkpt lat="44.675185618891" lon="8.473808416309147"><ele>177.71428571428572</ele><time>2026-04-16T11:24:55.999Z</time></trkpt><trkpt lat="44.67514447648635" lon="8.473884526565763"><ele>178.57142857142856</ele><time>2026-04-16T11:25:01.999Z</time></trkpt><trkpt lat="44.67512099897115" lon="8.473990399339385"><ele>179.42857142857144</ele><time>2026-04-16T11:25:07.999Z</time></trkpt><trkpt lat="44.6750809315312" lon="8.474067775404286"><ele>180.28571428571428</ele><time>2026-04-16T11:25:13.999Z</time></trkpt><trkpt lat="44.67505566803111" lon="8.474149944371979"><ele>181.14285714285714</ele><time>2026-04-16T11:25:17.999Z</time></trkpt><trkpt lat="44.67500764856104" lon="8.47423901263788"><ele>182.0</ele><time>2026-04-16T11:25:24Z</time></trkpt><trkpt lat="44.67494870361406" lon="8.474278126980192"><ele>182.0</ele><time>2026-04-16T11:25:28Z</time></trkpt><trkpt lat="44.67488925357533" lon="8.474343053487587"><ele>182.0</ele><time>2026-04-16T11:25:34Z</time></trkpt><trkpt lat="44.67485412620133" lon="8.47442155134097"><ele>182.0</ele><time>2026-04-16T11:25:40Z</time></trkpt><trkpt lat="44.67481356165214" lon="8.474507052628377"><ele>182.0</ele><time>2026-04-16T11:25:47Z</time></trkpt><trkpt lat="44.67477401241241" lon="8.474602085772652"><ele>182.0</ele><time>2026-04-16T11:25:54Z</time></trkpt><trkpt lat="44.674717267008035" lon="8.474658067497407"><ele>182.0</ele><time>2026-04-16T11:25:59Z</time></trkpt><trkpt lat="44.674659260822494" lon="8.474713457195392"><ele>182.0</ele><time>2026-04-16T11:26:05Z</time></trkpt><trkpt lat="44.67461061075202" lon="8.474771652117608"><ele>182.14285714285714</ele><time>2026-04-16T11:26:10Z</time></trkpt><trkpt lat="44.674564794075955" lon="8.474853392121284"><ele>182.28571428571428</ele><time>2026-04-16T11:26:16Z</time></trkpt><trkpt lat="44.67450888352056" lon="8.474900456257775"><ele>182.42857142857144</ele><time>2026-04-16T11:26:21Z</time></trkpt><trkpt lat="44.67444467042136" lon="8.474939478623309"><ele>182.57142857142856</ele><time>2026-04-16T11:26:26Z</time></trkpt><trkpt lat="44.67438858933495" lon="8.474994710456496"><ele>182.71428571428572</ele><time>2026-04-16T11:26:33Z</time></trkpt><trkpt lat="44.67433796023704" lon="8.475065896211891"><ele>182.85714285714286</ele><time>2026-04-16T11:26:39Z</time></trkpt><trkpt lat="44.67429619680354" lon="8.475137550663181"><ele>183.0</ele><time>2026-04-16T11:26:46.999Z</time></trkpt><trkpt lat="44.67424042703813" lon="8.475209377320464"><ele>182.14285714285714</ele><time>2026-04-16T11:26:51.999Z</time></trkpt><trkpt lat="44.67418179883984" lon="8.47527837969916"><ele>181.28571428571428</ele><time>2026-04-16T11:26:57.999Z</time></trkpt><trkpt lat="44.6741305560466" lon="8.475346292275551"><ele>180.42857142857144</ele><time>2026-04-16T11:27:03.999Z</time></trkpt><trkpt lat="44.674089093066705" lon="8.475422751938957"><ele>179.57142857142856</ele><time>2026-04-16T11:27:09.999Z</time></trkpt><trkpt lat="44.67403966388355" lon="8.475494785969067"><ele>178.7142857142857</ele><time>2026-04-16T11:27:16.999Z</time></trkpt><trkpt lat="44.67397923313901" lon="8.475538235444143"><ele>177.85714285714286</ele><time>2026-04-16T11:27:21.999Z</time></trkpt><trkpt lat="44.67391692505174" lon="8.475563663970483"><ele>177.0</ele><time>2026-04-16T11:27:27Z</time></trkpt><trkpt lat="44.67387175156098" lon="8.475640309375914"><ele>177.0</ele><time>2026-04-16T11:27:34Z</time></trkpt><trkpt lat="44.673818989180525" lon="8.475704521884763"><ele>177.0</ele><time>2026-04-16T11:27:40Z</time></trkpt><trkpt lat="44.673772387880064" lon="8.475766678599967"><ele>177.0</ele><time>2026-04-16T11:27:46Z</time></trkpt><trkpt lat="44.67371771671098" lon="8.475826251852368"><ele>177.0</ele><time>2026-04-16T11:27:54Z</time></trkpt><trkpt lat="44.67367594956959" lon="8.475905348130688"><ele>177.0</ele><time>2026-04-16T11:27:59Z</time></trkpt><trkpt lat="44.67363244711988" lon="8.475978218984189"><ele>177.0</ele><time>2026-04-16T11:28:04Z</time></trkpt><trkpt lat="44.67359181538215" lon="8.476062808317636"><ele>177.0</ele><time>2026-04-16T11:28:10Z</time></trkpt><trkpt lat="44.673557709793805" lon="8.47614426294569"><ele>175.71428571428572</ele><time>2026-04-16T11:28:16Z</time></trkpt><trkpt lat="44.673528463452456" lon="8.476223958494597"><ele>174.42857142857142</ele><time>2026-04-16T11:28:23Z</time></trkpt><trkpt lat="44.67345182709864" lon="8.476226273808589"><ele>173.14285714285714</ele><time>2026-04-16T11:28:41.999Z</time></trkpt><trkpt lat="44.67337788325629" lon="8.47621423142062"><ele>171.85714285714286</ele><time>2026-04-16T11:28:47.999Z</time></trkpt><trkpt lat="44.67331228861288" lon="8.476197609818168"><ele>170.57142857142856</ele><time>2026-04-16T11:28:53.999Z</time></trkpt><trkpt lat="44.67324026036398" lon="8.47622207695268"><ele>169.28571428571428</ele><time>2026-04-16T11:28:57.999Z</time></trkpt><trkpt lat="44.6731747990189" lon="8.47623478303347"><ele>168.0</ele><time>2026-04-16T11:29:00.999Z</time></trkpt><trkpt lat="44.67311299623472" lon="8.476196215281345"><ele>168.0</ele><time>2026-04-16T11:29:03.999Z</time></trkpt><trkpt lat="44.67305793782094" lon="8.476151647708331"><ele>168.0</ele><time>2026-04-16T11:29:08.999Z</time></trkpt><trkpt lat="44.673037095348974" lon="8.476044910794645"><ele>168.0</ele><time>2026-04-16T11:29:14.999Z</time></trkpt><trkpt lat="44.67303455752154" lon="8.475938643918871"><ele>168.0</ele><time>2026-04-16T11:29:21.999Z</time></trkpt><trkpt lat="44.673039238792846" lon="8.475849797228141"><ele>168.0</ele><time>2026-04-16T11:29:28.999Z</time></trkpt><trkpt lat="44.67301996533699" lon="8.475756324177013"><ele>168.0</ele><time>2026-04-16T11:29:37Z</time></trkpt><trkpt lat="44.673012064182664" lon="8.475666884507387"><ele>168.0</ele><time>2026-04-16T11:29:43Z</time></trkpt><trkpt lat="44.67301226556284" lon="8.475554091672612"><ele>168.0</ele><time>2026-04-16T11:29:48Z</time></trkpt><trkpt lat="44.67302715605572" lon="8.475451410493116"><ele>168.0</ele><time>2026-04-16T11:29:52Z</time></trkpt><trkpt lat="44.673031368139284" lon="8.475344340127684"><ele>168.0</ele><time>2026-04-16T11:29:56Z</time></trkpt><trkpt lat="44.67303241662317" lon="8.475254505325239"><ele>168.0</ele><time>2026-04-16T11:30:02Z</time></trkpt><trkpt lat="44.67303681255556" lon="8.47514844295936"><ele>168.0</ele><time>2026-04-16T11:30:08Z</time></trkpt><trkpt lat="44.673042549924396" lon="8.475059540860695"><ele>168.0</ele><time>2026-04-16T11:30:13Z</time></trkpt><trkpt lat="44.67303921505566" lon="8.474963426853941"><ele>168.0</ele><time>2026-04-16T11:30:20Z</time></trkpt><trkpt lat="44.67303760418779" lon="8.474850866991735"><ele>167.85714285714286</ele><time>2026-04-16T11:30:25Z</time></trkpt><trkpt lat="44.673033897378396" lon="8.474745066012428"><ele>167.71428571428572</ele><time>2026-04-16T11:30:32Z</time></trkpt><trkpt lat="44.67303240521795" lon="8.474649960985726"><ele>167.57142857142856</ele><time>2026-04-16T11:30:39Z</time></trkpt><trkpt lat="44.67301444616912" lon="8.474552046344433"><ele>167.42857142857144</ele><time>2026-04-16T11:30:46Z</time></trkpt><trkpt lat="44.673003741844596" lon="8.474451504774164"><ele>167.28571428571428</ele><time>2026-04-16T11:30:52Z</time></trkpt><trkpt lat="44.673010405783884" lon="8.47433820834"><ele>167.14285714285714</ele><time>2026-04-16T11:30:55.999Z</time></trkpt><trkpt lat="44.673004933725935" lon="8.474240433544145"><ele>167.0</ele><time>2026-04-16T11:30:59.999Z</time></trkpt><trkpt lat="44.672990762104774" lon="8.47414030131403"><ele>167.28571428571428</ele><time>2026-04-16T11:31:04.999Z</time></trkpt><trkpt lat="44.6729561389735" lon="8.474059410531273"><ele>167.57142857142858</ele><time>2026-04-16T11:31:12.999Z</time></trkpt><trkpt lat="44.67289664505255" lon="8.473996421871167"><ele>167.85714285714286</ele><time>2026-04-16T11:31:18.999Z</time></trkpt><trkpt lat="44.67289405987293" lon="8.473901203291252"><ele>168.14285714285714</ele><time>2026-04-16T11:31:23.999Z</time></trkpt><trkpt lat="44.67289136182037" lon="8.473800415465481"><ele>168.42857142857142</ele><time>2026-04-16T11:31:28.999Z</time></trkpt><trkpt lat="44.67288917942994" lon="8.473711676972675"><ele>168.71428571428572</ele><time>2026-04-16T11:31:34.999Z</time></trkpt><trkpt lat="44.672887623132254" lon="8.473616842248106"><ele>169.0</ele><time>2026-04-16T11:31:40Z</time></trkpt><trkpt lat="44.672885913369896" lon="8.473523405038318"><ele>169.85714285714286</ele><time>2026-04-16T11:31:45Z</time></trkpt><trkpt lat="44.672886592714676" lon="8.473425353667894"><ele>170.71428571428572</ele><time>2026-04-16T11:31:51Z</time></trkpt><trkpt lat="44.67289266772615" lon="8.473320963504253"><ele>171.57142857142856</ele><time>2026-04-16T11:31:57Z</time></trkpt><trkpt lat="44.67288865550809" lon="8.473232002816657"><ele>172.42857142857144</ele><time>2026-04-16T11:32:02Z</time></trkpt><trkpt lat="44.6728823939763" lon="8.473143203913681"><ele>173.28571428571428</ele><time>2026-04-16T11:32:07Z</time></trkpt><trkpt lat="44.67288122923447" lon="8.473044518116744"><ele>174.14285714285714</ele><time>2026-04-16T11:32:12Z</time></trkpt><trkpt lat="44.672878890360685" lon="8.472948275633101"><ele>175.0</ele><time>2026-04-16T11:32:17Z</time></trkpt><trkpt lat="44.67289381987786" lon="8.472850762084535"><ele>175.71428571428572</ele><time>2026-04-16T11:32:22Z</time></trkpt><trkpt lat="44.67290488922326" lon="8.472763331942609"><ele>176.42857142857144</ele><time>2026-04-16T11:32:27Z</time></trkpt><trkpt lat="44.67289790900898" lon="8.472670845140383"><ele>177.14285714285714</ele><time>2026-04-16T11:32:32Z</time></trkpt><trkpt lat="44.67288181362006" lon="8.472571863059922"><ele>177.85714285714286</ele><time>2026-04-16T11:32:38Z</time></trkpt><trkpt lat="44.67287636878806" lon="8.472482291002331"><ele>178.57142857142858</ele><time>2026-04-16T11:32:43Z</time></trkpt><trkpt lat="44.67287958021173" lon="8.472373451448261"><ele>179.28571428571428</ele><time>2026-04-16T11:32:49Z</time></trkpt><trkpt lat="44.672871545244504" lon="8.472277483815315"><ele>180.0</ele><time>2026-04-16T11:32:55Z</time></trkpt><trkpt lat="44.67288197297531" lon="8.472187286036137"><ele>179.42857142857142</ele><time>2026-04-16T11:33:01Z</time></trkpt><trkpt lat="44.672865930684935" lon="8.47209632670716"><ele>178.85714285714286</ele><time>2026-04-16T11:33:06Z</time></trkpt><trkpt lat="44.67286805765436" lon="8.471990902643812"><ele>178.28571428571428</ele><time>2026-04-16T11:33:10.999Z</time></trkpt><trkpt lat="44.67287594085567" lon="8.471894312019748"><ele>177.71428571428572</ele><time>2026-04-16T11:33:15.999Z</time></trkpt><trkpt lat="44.672886525904" lon="8.471799670587835"><ele>177.14285714285714</ele><time>2026-04-16T11:33:20.999Z</time></trkpt><trkpt lat="44.67289157615349" lon="8.471699862623936"><ele>176.57142857142858</ele><time>2026-04-16T11:33:25.999Z</time></trkpt><trkpt lat="44.67288816927019" lon="8.471598179634936"><ele>176.0</ele><time>2026-04-16T11:33:31.999Z</time></trkpt><trkpt lat="44.67288154328093" lon="8.471497033333574"><ele>176.0</ele><time>2026-04-16T11:33:37.999Z</time></trkpt><trkpt lat="44.67286616592273" lon="8.47139719138234"><ele>176.0</ele><time>2026-04-16T11:33:44Z</time></trkpt><trkpt lat="44.67286068272891" lon="8.471308949899456"><ele>176.0</ele><time>2026-04-16T11:33:49Z</time></trkpt><trkpt lat="44.67287371680279" lon="8.471211247332876"><ele>176.0</ele><time>2026-04-16T11:33:54Z</time></trkpt><trkpt lat="44.67285243170732" lon="8.471116523330998"><ele>176.0</ele><time>2026-04-16T11:34:00Z</time></trkpt><trkpt lat="44.67286342365874" lon="8.471025275271915"><ele>176.0</ele><time>2026-04-16T11:34:05Z</time></trkpt><trkpt lat="44.672871591909995" lon="8.470922670793879"><ele>176.0</ele><time>2026-04-16T11:34:10Z</time></trkpt><trkpt lat="44.672879635531096" lon="8.470827024065215"><ele>175.57142857142858</ele><time>2026-04-16T11:34:16Z</time></trkpt><trkpt lat="44.67283511706082" lon="8.470758213499554"><ele>175.14285714285714</ele><time>2026-04-16T11:34:21Z</time></trkpt><trkpt lat="44.67276923998667" lon="8.470741030594839"><ele>174.71428571428572</ele><time>2026-04-16T11:34:25Z</time></trkpt><trkpt lat="44.672700779106655" lon="8.470759919508103"><ele>174.28571428571428</ele><time>2026-04-16T11:34:30Z</time></trkpt><trkpt lat="44.67265750053757" lon="8.47082995173594"><ele>173.85714285714286</ele><time>2026-04-16T11:34:35Z</time></trkpt><trkpt lat="44.672595495616406" lon="8.470889969527322"><ele>173.42857142857142</ele><time>2026-04-16T11:34:40Z</time></trkpt><trkpt lat="44.67253247305347" lon="8.470915318553935"><ele>173.0</ele><time>2026-04-16T11:34:45Z</time></trkpt><trkpt lat="44.67246795668934" lon="8.470926913710203"><ele>172.0</ele><time>2026-04-16T11:34:51Z</time></trkpt><trkpt lat="44.67239450468212" lon="8.470938972465735"><ele>171.0</ele><time>2026-04-16T11:34:57Z</time></trkpt><trkpt lat="44.672336244134875" lon="8.470976468630528"><ele>170.0</ele><time>2026-04-16T11:35:02Z</time></trkpt><trkpt lat="44.67226385393998" lon="8.471002335580348"><ele>169.0</ele><time>2026-04-16T11:35:08Z</time></trkpt><trkpt lat="44.67220487292812" lon="8.471034734973367"><ele>168.0</ele><time>2026-04-16T11:35:12.999Z</time></trkpt><trkpt lat="44.672138192818956" lon="8.471038343245706"><ele>167.0</ele><time>2026-04-16T11:35:20.999Z</time></trkpt><trkpt lat="44.672058743354036" lon="8.471064274475836"><ele>166.0</ele><time>2026-04-16T11:35:24.999Z</time></trkpt><trkpt lat="44.67197989515025" lon="8.471083272802746"><ele>166.0</ele><time>2026-04-16T11:35:29.999Z</time></trkpt><trkpt lat="44.67190993160552" lon="8.47107590865674"><ele>166.0</ele><time>2026-04-16T11:35:33.999Z</time></trkpt><trkpt lat="44.67185831226412" lon="8.47113215863504"><ele>166.0</ele><time>2026-04-16T11:35:38.999Z</time></trkpt><trkpt lat="44.67179653428559" lon="8.471168197333855"><ele>166.0</ele><time>2026-04-16T11:35:43.999Z</time></trkpt><trkpt lat="44.67172800196891" lon="8.471220982515696"><ele>166.0</ele><time>2026-04-16T11:35:51Z</time></trkpt><trkpt lat="44.67165627257047" lon="8.47125449811161"><ele>166.0</ele><time>2026-04-16T11:36:00Z</time></trkpt><trkpt lat="44.67158231996481" lon="8.471273266254958"><ele>166.0</ele><time>2026-04-16T11:36:06Z</time></trkpt><trkpt lat="44.67152819199313" lon="8.471206143904777"><ele>166.0</ele><time>2026-04-16T11:36:15Z</time></trkpt><trkpt lat="44.67146074652468" lon="8.471211008384989"><ele>166.0</ele><time>2026-04-16T11:36:20Z</time></trkpt><trkpt lat="44.67138831712693" lon="8.471223509421737"><ele>166.0</ele><time>2026-04-16T11:36:25Z</time></trkpt><trkpt lat="44.671319192045715" lon="8.471252289144324"><ele>166.0</ele><time>2026-04-16T11:36:32Z</time></trkpt><trkpt lat="44.67123948449488" lon="8.471272640757148"><ele>166.0</ele><time>2026-04-16T11:36:39Z</time></trkpt><trkpt lat="44.67116864968717" lon="8.471273054236752"><ele>166.0</ele><time>2026-04-16T11:36:45Z</time></trkpt><trkpt lat="44.67110318293374" lon="8.471260646540363"><ele>166.0</ele><time>2026-04-16T11:36:51Z</time></trkpt><trkpt lat="44.67104101788883" lon="8.471241618787095"><ele>165.42857142857142</ele><time>2026-04-16T11:36:54Z</time></trkpt><trkpt lat="44.67096830402047" lon="8.471219701502182"><ele>164.85714285714286</ele><time>2026-04-16T11:37:00Z</time></trkpt><trkpt lat="44.67089270830043" lon="8.471215434482222"><ele>164.28571428571428</ele><time>2026-04-16T11:37:06Z</time></trkpt><trkpt lat="44.67082434811033" lon="8.471216511166798"><ele>163.71428571428572</ele><time>2026-04-16T11:37:13Z</time></trkpt><trkpt lat="44.67076088120847" lon="8.471209981645092"><ele>163.14285714285714</ele><time>2026-04-16T11:37:17.999Z</time></trkpt><trkpt lat="44.67068856271059" lon="8.471208598964862"><ele>162.57142857142858</ele><time>2026-04-16T11:37:24.999Z</time></trkpt><trkpt lat="44.67061416985293" lon="8.471204124683513"><ele>162.0</ele><time>2026-04-16T11:37:30.999Z</time></trkpt><trkpt lat="44.67055113998351" lon="8.471202329823859"><ele>162.0</ele><time>2026-04-16T11:37:36.999Z</time></trkpt><trkpt lat="44.6704856795174" lon="8.471197428264702"><ele>162.0</ele><time>2026-04-16T11:37:42.999Z</time></trkpt><trkpt lat="44.67041584207648" lon="8.471192467200797"><ele>162.0</ele><time>2026-04-16T11:37:48.999Z</time></trkpt><trkpt lat="44.670345622830176" lon="8.4711902254857"><ele>162.0</ele><time>2026-04-16T11:37:53.999Z</time></trkpt><trkpt lat="44.67027251069564" lon="8.471194342871545"><ele>162.0</ele><time>2026-04-16T11:38:00Z</time></trkpt><trkpt lat="44.670200178438016" lon="8.471198647500811"><ele>162.0</ele><time>2026-04-16T11:38:06Z</time></trkpt><trkpt lat="44.670136957981946" lon="8.471181723370206"><ele>162.0</ele><time>2026-04-16T11:38:12Z</time></trkpt><trkpt lat="44.67007140094071" lon="8.471168946865411"><ele>162.57142857142858</ele><time>2026-04-16T11:38:17Z</time></trkpt><trkpt lat="44.67000814771155" lon="8.471146837614619"><ele>163.14285714285714</ele><time>2026-04-16T11:38:23Z</time></trkpt><trkpt lat="44.66994536937105" lon="8.471116629611435"><ele>163.71428571428572</ele><time>2026-04-16T11:38:28Z</time></trkpt><trkpt lat="44.66988266346298" lon="8.471071461428684"><ele>164.28571428571428</ele><time>2026-04-16T11:38:33Z</time></trkpt><trkpt lat="44.66980973218619" lon="8.471015198454412"><ele>164.85714285714286</ele><time>2026-04-16T11:38:54Z</time></trkpt><trkpt lat="44.66974389984749" lon="8.471033555157483"><ele>165.42857142857142</ele><time>2026-04-16T11:39:01Z</time></trkpt><trkpt lat="44.669674922551415" lon="8.47106374862971"><ele>166.0</ele><time>2026-04-16T11:39:07Z</time></trkpt><trkpt lat="44.669620126516385" lon="8.47101323239922"><ele>166.0</ele><time>2026-04-16T11:39:11.999Z</time></trkpt><trkpt lat="44.66954798557335" lon="8.470984747700417"><ele>166.0</ele><time>2026-04-16T11:39:17.999Z</time></trkpt><trkpt lat="44.66948135060261" lon="8.470956997294758"><ele>166.0</ele><time>2026-04-16T11:39:22.999Z</time></trkpt><trkpt lat="44.66941100212135" lon="8.47092347704464"><ele>166.0</ele><time>2026-04-16T11:39:28.999Z</time></trkpt><trkpt lat="44.66934629212444" lon="8.47092736352059"><ele>166.0</ele><time>2026-04-16T11:39:33.999Z</time></trkpt><trkpt lat="44.669288436311106" lon="8.47089206243451"><ele>166.0</ele><time>2026-04-16T11:39:38.999Z</time></trkpt><trkpt lat="44.66924147034511" lon="8.470830569684898"><ele>166.0</ele><time>2026-04-16T11:39:44.999Z</time></trkpt><trkpt lat="44.66918752113445" lon="8.470781758127886"><ele>165.7142857142857</ele><time>2026-04-16T11:39:49.999Z</time></trkpt><trkpt lat="44.669120732613266" lon="8.470785332463084"><ele>165.42857142857144</ele><time>2026-04-16T11:39:53.999Z</time></trkpt><trkpt lat="44.669052821399404" lon="8.470801799451749"><ele>165.14285714285714</ele><time>2026-04-16T11:39:58.999Z</time></trkpt><trkpt lat="44.66898881047433" lon="8.470833626310673"><ele>164.85714285714283</ele><time>2026-04-16T11:40:04Z</time></trkpt><trkpt lat="44.66892924838268" lon="8.470863454370502"><ele>164.57142857142856</ele><time>2026-04-16T11:40:09Z</time></trkpt><trkpt lat="44.66885968733105" lon="8.47088833884424"><ele>164.28571428571428</ele><time>2026-04-16T11:40:15Z</time></trkpt><trkpt lat="44.66879601597029" lon="8.470883786511024"><ele>164.0</ele><time>2026-04-16T11:40:20Z</time></trkpt><trkpt lat="44.66872393611324" lon="8.470886446426167"><ele>164.0</ele><time>2026-04-16T11:40:26Z</time></trkpt><trkpt lat="44.66864680515939" lon="8.470880238415868"><ele>164.0</ele><time>2026-04-16T11:40:32Z</time></trkpt><trkpt lat="44.66856265510131" lon="8.470875196125048"><ele>164.0</ele><time>2026-04-16T11:40:38Z</time></trkpt><trkpt lat="44.668489897914604" lon="8.470876782684364"><ele>164.0</ele><time>2026-04-16T11:40:45Z</time></trkpt><trkpt lat="44.668418343494494" lon="8.470876504540076"><ele>164.0</ele><time>2026-04-16T11:40:52Z</time></trkpt><trkpt lat="44.66834309398388" lon="8.470879909601962"><ele>164.0</ele><time>2026-04-16T11:40:57.999Z</time></trkpt><trkpt lat="44.66827344399569" lon="8.470877411194046"><ele>163.85714285714283</ele><time>2026-04-16T11:41:03.999Z</time></trkpt><trkpt lat="44.6682071414709" lon="8.470871416793454"><ele>163.71428571428572</ele><time>2026-04-16T11:41:09.999Z</time></trkpt><trkpt lat="44.668141702944716" lon="8.470875201566654"><ele>163.57142857142856</ele><time>2026-04-16T11:41:15.999Z</time></trkpt><trkpt lat="44.66807567693244" lon="8.470877034116308"><ele>163.42857142857142</ele><time>2026-04-16T11:41:21.999Z</time></trkpt><trkpt lat="44.66800537867004" lon="8.470874754546497"><ele>163.28571428571428</ele><time>2026-04-16T11:41:27.999Z</time></trkpt><trkpt lat="44.66794111161111" lon="8.470869311625934"><ele>163.14285714285714</ele><time>2026-04-16T11:41:33.999Z</time></trkpt><trkpt lat="44.667873549025806" lon="8.470871444855796"><ele>163.0</ele><time>2026-04-16T11:41:39.999Z</time></trkpt><trkpt lat="44.66780444616689" lon="8.470869658791987"><ele>162.2857142857143</ele><time>2026-04-16T11:41:45.999Z</time></trkpt><trkpt lat="44.66773977554924" lon="8.470873705022532"><ele>161.57142857142856</ele><time>2026-04-16T11:41:51.999Z</time></trkpt><trkpt lat="44.667668191278175" lon="8.470854296039727"><ele>160.85714285714286</ele><time>2026-04-16T11:41:58.999Z</time></trkpt><trkpt lat="44.66760809618028" lon="8.47081531193907"><ele>160.14285714285717</ele><time>2026-04-16T11:42:03.999Z</time></trkpt><trkpt lat="44.66757038207336" lon="8.470738764825553"><ele>159.42857142857144</ele><time>2026-04-16T11:42:08.999Z</time></trkpt><trkpt lat="44.667520709118016" lon="8.470678000020454"><ele>158.71428571428572</ele><time>2026-04-16T11:42:13.999Z</time></trkpt><trkpt lat="44.66747148608484" lon="8.470621778994584"><ele>158.0</ele><time>2026-04-16T11:42:18.999Z</time></trkpt><trkpt lat="44.66741448975863" lon="8.470559100927462"><ele>158.00000000000003</ele><time>2026-04-16T11:42:24.999Z</time></trkpt><trkpt lat="44.66734364515063" lon="8.470542847178804"><ele>158.0</ele><time>2026-04-16T11:42:30.999Z</time></trkpt><trkpt lat="44.66727891869597" lon="8.470532058283668"><ele>158.0</ele><time>2026-04-16T11:42:36.999Z</time></trkpt><trkpt lat="44.66727673395978" lon="8.470436066436175"><ele>158.0</ele><time>2026-04-16T11:42:43.999Z</time></trkpt><trkpt lat="44.66728944767745" lon="8.470333145159524"><ele>158.0</ele><time>2026-04-16T11:42:49.999Z</time></trkpt><trkpt lat="44.667288548640684" lon="8.470235078187438"><ele>158.00000000000003</ele><time>2026-04-16T11:42:55.999Z</time></trkpt><trkpt lat="44.667278004070994" lon="8.470142800593994"><ele>158.0</ele><time>2026-04-16T11:43:00.999Z</time></trkpt><trkpt lat="44.66727782070359" lon="8.470045213843102"><ele>157.85714285714286</ele><time>2026-04-16T11:43:06.999Z</time></trkpt><trkpt lat="44.66727867565093" lon="8.469949001051608"><ele>157.71428571428572</ele><time>2026-04-16T11:43:12.999Z</time></trkpt><trkpt lat="44.667303338741085" lon="8.46985210363173"><ele>157.57142857142856</ele><time>2026-04-16T11:43:19.999Z</time></trkpt><trkpt lat="44.66732567080357" lon="8.469752889562411"><ele>157.42857142857144</ele><time>2026-04-16T11:43:25.999Z</time></trkpt><trkpt lat="44.66734717995517" lon="8.469658857334394"><ele>157.28571428571428</ele><time>2026-04-16T11:43:31.999Z</time></trkpt><trkpt lat="44.66736693220168" lon="8.469565368110997"><ele>157.14285714285714</ele><time>2026-04-16T11:43:37.999Z</time></trkpt><trkpt lat="44.66738737138421" lon="8.469475940231113"><ele>157.0</ele><time>2026-04-16T11:43:43.999Z</time></trkpt><trkpt lat="44.66741514539004" lon="8.46938505088926"><ele>156.7142857142857</ele><time>2026-04-16T11:43:49.999Z</time></trkpt><trkpt lat="44.667438548716625" lon="8.469301396026294"><ele>156.42857142857142</ele><time>2026-04-16T11:43:55.999Z</time></trkpt><trkpt lat="44.667460168687356" lon="8.46921497153177"><ele>156.14285714285714</ele><time>2026-04-16T11:44:01.999Z</time></trkpt><trkpt lat="44.667471606711636" lon="8.469118019333989"><ele>155.85714285714283</ele><time>2026-04-16T11:44:07.999Z</time></trkpt><trkpt lat="44.66749489388471" lon="8.469012965049968"><ele>155.57142857142856</ele><time>2026-04-16T11:44:13.999Z</time></trkpt><trkpt lat="44.66753103508913" lon="8.46893506771709"><ele>155.28571428571428</ele><time>2026-04-16T11:44:19.999Z</time></trkpt><trkpt lat="44.66757704635417" lon="8.468861673981365"><ele>155.0</ele><time>2026-04-16T11:44:25.999Z</time></trkpt><trkpt lat="44.66763879987022" lon="8.468829405484689"><ele>155.0</ele><time>2026-04-16T11:44:31.999Z</time></trkpt><trkpt lat="44.66770471767676" lon="8.46878371224771"><ele>155.0</ele><time>2026-04-16T11:44:38.999Z</time></trkpt><trkpt lat="44.667767882587555" lon="8.468758334338743"><ele>155.0</ele><time>2026-04-16T11:44:45.999Z</time></trkpt><trkpt lat="44.6677725282269" lon="8.468662744067222"><ele>155.0</ele><time>2026-04-16T11:44:50.999Z</time></trkpt><trkpt lat="44.66774592281334" lon="8.468572455795648"><ele>155.0</ele><time>2026-04-16T11:44:56.999Z</time></trkpt><trkpt lat="44.66772869391523" lon="8.468470044358172"><ele>155.0</ele><time>2026-04-16T11:45:02.999Z</time></trkpt><trkpt lat="44.667705569505685" lon="8.468375576624101"><ele>155.0</ele><time>2026-04-16T11:45:08.999Z</time></trkpt><trkpt lat="44.6677214583331" lon="8.468275035627617"><ele>154.71428571428572</ele><time>2026-04-16T11:45:14.999Z</time></trkpt><trkpt lat="44.667746329095394" lon="8.468181278721636"><ele>154.42857142857142</ele><time>2026-04-16T11:45:20.999Z</time></trkpt><trkpt lat="44.66777547445827" lon="8.468085114121651"><ele>154.14285714285714</ele><time>2026-04-16T11:45:26.999Z</time></trkpt><trkpt lat="44.66778529641753" lon="8.46799316165904"><ele>153.85714285714286</ele><time>2026-04-16T11:45:31.999Z</time></trkpt><trkpt lat="44.66782122890588" lon="8.467906425840539"><ele>153.57142857142858</ele><time>2026-04-16T11:45:37.999Z</time></trkpt><trkpt lat="44.66784478696709" lon="8.467811030519371"><ele>153.28571428571428</ele><time>2026-04-16T11:45:43.999Z</time></trkpt><trkpt lat="44.667857856730684" lon="8.467714524757264"><ele>153.0</ele><time>2026-04-16T11:45:49.999Z</time></trkpt><trkpt lat="44.66787784338277" lon="8.467621096032614"><ele>152.28571428571428</ele><time>2026-04-16T11:45:55.999Z</time></trkpt><trkpt lat="44.66791030892519" lon="8.46754485802708"><ele>151.57142857142858</ele><time>2026-04-16T11:46:01.999Z</time></trkpt><trkpt lat="44.66797672898619" lon="8.467498575341809"><ele>150.85714285714286</ele><time>2026-04-16T11:46:07.999Z</time></trkpt><trkpt lat="44.668053475900535" lon="8.46747020501114"><ele>150.14285714285714</ele><time>2026-04-16T11:46:13.999Z</time></trkpt><trkpt lat="44.66812134925616" lon="8.467449530837296"><ele>149.42857142857142</ele><time>2026-04-16T11:46:19.999Z</time></trkpt><trkpt lat="44.66819246977453" lon="8.46743296624249"><ele>148.71428571428572</ele><time>2026-04-16T11:46:25.999Z</time></trkpt><trkpt lat="44.66826404245915" lon="8.46742539632159"><ele>148.0</ele><time>2026-04-16T11:46:31.999Z</time></trkpt><trkpt lat="44.66833503380099" lon="8.467400098051206"><ele>148.0</ele><time>2026-04-16T11:46:38.999Z</time></trkpt><trkpt lat="44.668408362853576" lon="8.4673925854334"><ele>148.0</ele><time>2026-04-16T11:46:44.999Z</time></trkpt><trkpt lat="44.668471962960446" lon="8.467372084473782"><ele>148.0</ele><time>2026-04-16T11:46:50.999Z</time></trkpt><trkpt lat="44.66854367764607" lon="8.467369619252107"><ele>148.0</ele><time>2026-04-16T11:46:56.999Z</time></trkpt><trkpt lat="44.66860794456217" lon="8.46733852369583"><ele>148.0</ele><time>2026-04-16T11:47:01.999Z</time></trkpt><trkpt lat="44.668677040454746" lon="8.467317089161664"><ele>148.0</ele><time>2026-04-16T11:47:06.999Z</time></trkpt><trkpt lat="44.66874343208005" lon="8.467306847702698"><ele>148.0</ele><time>2026-04-16T11:47:11.999Z</time></trkpt><trkpt lat="44.66880428306967" lon="8.467259518746546"><ele>148.42857142857144</ele><time>2026-04-16T11:47:16.999Z</time></trkpt><trkpt lat="44.668870959270606" lon="8.46724366718275"><ele>148.85714285714286</ele><time>2026-04-16T11:47:22.999Z</time></trkpt><trkpt lat="44.66894515402596" lon="8.467236185958958"><ele>149.28571428571428</ele><time>2026-04-16T11:47:28.999Z</time></trkpt><trkpt lat="44.66900888902342" lon="8.467226004829586"><ele>149.71428571428572</ele><time>2026-04-16T11:47:33.999Z</time></trkpt><trkpt lat="44.669078128177304" lon="8.467198314154523"><ele>150.14285714285714</ele><time>2026-04-16T11:47:39.999Z</time></trkpt><trkpt lat="44.669148459661315" lon="8.467183074040657"><ele>150.57142857142858</ele><time>2026-04-16T11:47:47.999Z</time></trkpt><trkpt lat="44.66921902257581" lon="8.46718936097056"><ele>151.0</ele><time>2026-04-16T11:47:52.999Z</time></trkpt><trkpt lat="44.66929273706435" lon="8.46718697524588"><ele>151.00000000000003</ele><time>2026-04-16T11:47:58.999Z</time></trkpt><trkpt lat="44.6693579038528" lon="8.467147160932635"><ele>151.0</ele><time>2026-04-16T11:48:05.999Z</time></trkpt><trkpt lat="44.669423997279345" lon="8.467105563734089"><ele>151.0</ele><time>2026-04-16T11:48:13.999Z</time></trkpt><trkpt lat="44.66949859812112" lon="8.467126665160876"><ele>151.0</ele><time>2026-04-16T11:48:18.999Z</time></trkpt><trkpt lat="44.66956881471516" lon="8.4671156290507"><ele>151.0</ele><time>2026-04-16T11:48:23.999Z</time></trkpt><trkpt lat="44.66963254106625" lon="8.467096676549335"><ele>151.00000000000003</ele><time>2026-04-16T11:48:28.999Z</time></trkpt><trkpt lat="44.669700296370124" lon="8.467089735842022"><ele>151.0</ele><time>2026-04-16T11:48:35Z</time></trkpt><trkpt lat="44.669771391979516" lon="8.467081130057394"><ele>151.42857142857144</ele><time>2026-04-16T11:48:41Z</time></trkpt><trkpt lat="44.66983930618025" lon="8.467067176804767"><ele>151.85714285714286</ele><time>2026-04-16T11:48:47Z</time></trkpt><trkpt lat="44.66990853175116" lon="8.467066438334452"><ele>152.28571428571428</ele><time>2026-04-16T11:48:53Z</time></trkpt><trkpt lat="44.669979944947265" lon="8.46705757046232"><ele>152.71428571428572</ele><time>2026-04-16T11:48:59Z</time></trkpt><trkpt lat="44.67004723295742" lon="8.467051906139204"><ele>153.14285714285714</ele><time>2026-04-16T11:49:06Z</time></trkpt><trkpt lat="44.670123541368824" lon="8.467050223093878"><ele>153.57142857142858</ele><time>2026-04-16T11:49:12Z</time></trkpt><trkpt lat="44.67019342193095" lon="8.467020265788719"><ele>154.0</ele><time>2026-04-16T11:49:17Z</time></trkpt><trkpt lat="44.670258066094576" lon="8.467015737450975"><ele>154.42857142857142</ele><time>2026-04-16T11:49:22Z</time></trkpt><trkpt lat="44.6703294847304" lon="8.466997116044483"><ele>154.85714285714286</ele><time>2026-04-16T11:49:28Z</time></trkpt><trkpt lat="44.670395456825084" lon="8.466993036182116"><ele>155.28571428571428</ele><time>2026-04-16T11:49:34Z</time></trkpt><trkpt lat="44.67046266336853" lon="8.466988986038626"><ele>155.71428571428572</ele><time>2026-04-16T11:49:38Z</time></trkpt><trkpt lat="44.670529448137074" lon="8.466976864715345"><ele>156.14285714285714</ele><time>2026-04-16T11:49:43Z</time></trkpt><trkpt lat="44.67062455579912" lon="8.46699578156568"><ele>156.57142857142856</ele><time>2026-04-16T11:49:53Z</time></trkpt><trkpt lat="44.67067805554135" lon="8.466942556367908"><ele>157.0</ele><time>2026-04-16T11:49:58Z</time></trkpt><trkpt lat="44.670739393612585" lon="8.46690532219516"><ele>156.99999999999997</ele><time>2026-04-16T11:50:03Z</time></trkpt><trkpt lat="44.67080844893375" lon="8.466902756512642"><ele>157.0</ele><time>2026-04-16T11:50:10Z</time></trkpt><trkpt lat="44.670900399210154" lon="8.466874727918297"><ele>157.0</ele><time>2026-04-16T11:50:16Z</time></trkpt><trkpt lat="44.67095259978338" lon="8.466797506116215"><ele>157.0</ele><time>2026-04-16T11:50:21Z</time></trkpt><trkpt lat="44.671014519988894" lon="8.466776992642503"><ele>157.0</ele><time>2026-04-16T11:50:26Z</time></trkpt><trkpt lat="44.67107240332954" lon="8.466826005618692"><ele>156.99999999999997</ele><time>2026-04-16T11:50:32Z</time></trkpt><trkpt lat="44.671135792850315" lon="8.46679846023402"><ele>157.0</ele><time>2026-04-16T11:50:36Z</time></trkpt><trkpt lat="44.67119795867888" lon="8.46675671774886"><ele>157.66666666666669</ele><time>2026-04-16T11:50:41Z</time></trkpt><trkpt lat="44.671273867272646" lon="8.46674951214493"><ele>158.33333333333334</ele><time>2026-04-16T11:50:50Z</time></trkpt><trkpt lat="44.671380707282225" lon="8.466774907154873"><ele>159.0</ele><time>2026-04-16T11:50:56Z</time></trkpt><trkpt lat="44.6714520435551" lon="8.466782073084163"><ele>159.66666666666666</ele><time>2026-04-16T11:51:03Z</time></trkpt><trkpt lat="44.671525842837625" lon="8.466798280703651"><ele>160.33333333333331</ele><time>2026-04-16T11:51:10Z</time></trkpt><trkpt lat="44.67158437938257" lon="8.466834856894138"><ele>161.0</ele><time>2026-04-16T11:51:14Z</time></trkpt><trkpt lat="44.67166082239244" lon="8.46678019403477"><ele>161.0</ele><time>2026-04-16T11:51:20Z</time></trkpt><trkpt lat="44.67171349944901" lon="8.466645074645168"><ele>161.0</ele><time>2026-04-16T11:51:23Z</time></trkpt><trkpt lat="44.67176567269347" lon="8.466569661134418"><ele>161.0</ele><time>2026-04-16T11:51:29Z</time></trkpt><trkpt lat="44.67225415007125" lon="8.465823761924284"><ele>163.0</ele><time>2026-04-16T11:51:50.058Z</time></trkpt><trkpt lat="44.672114101635735" lon="8.46630140434269"><ele>165.0</ele><time>2026-04-16T11:51:52.062Z</time></trkpt><trkpt lat="44.67206586510422" lon="8.466397326253745"><ele>165.00000000000003</ele><time>2026-04-16T11:51:54Z</time></trkpt><trkpt lat="44.6721453562544" lon="8.466426397300182"><ele>165.0</ele><time>2026-04-16T11:52:08Z</time></trkpt><trkpt lat="44.67218282263172" lon="8.466500607515623"><ele>165.0</ele><time>2026-04-16T11:52:11Z</time></trkpt><trkpt lat="44.672250193190784" lon="8.466512404008897"><ele>165.0</ele><time>2026-04-16T11:52:16Z</time></trkpt><trkpt lat="44.67228375337305" lon="8.46659031009638"><ele>165.0</ele><time>2026-04-16T11:52:19Z</time></trkpt><trkpt lat="44.67231687613937" lon="8.466668914757566"><ele>165.00000000000003</ele><time>2026-04-16T11:52:23Z</time></trkpt><trkpt lat="44.67232671893329" lon="8.466762198342158"><ele>165.0</ele><time>2026-04-16T11:52:28Z</time></trkpt><trkpt lat="44.672410375120286" lon="8.466759033390815"><ele>165.00000000000003</ele><time>2026-04-16T11:52:36Z</time></trkpt><trkpt lat="44.672474201502936" lon="8.466694017849948"><ele>165.0</ele><time>2026-04-16T11:52:38.001Z</time></trkpt><trkpt lat="44.67254094381765" lon="8.466689371556495"><ele>165.0</ele><time>2026-04-16T11:52:46Z</time></trkpt><trkpt lat="44.6726147250838" lon="8.466704803226818"><ele>165.0</ele><time>2026-04-16T11:52:50Z</time></trkpt><trkpt lat="44.672656511624325" lon="8.466628562110062"><ele>165.0</ele><time>2026-04-16T11:52:55Z</time></trkpt><trkpt lat="44.67270808407569" lon="8.466568806405485"><ele>165.00000000000003</ele><time>2026-04-16T11:53:01Z</time></trkpt><trkpt lat="44.67273740408916" lon="8.466483206611306"><ele>165.0</ele><time>2026-04-16T11:53:09Z</time></trkpt><trkpt lat="44.672765241863935" lon="8.466386989253232"><ele>164.71428571428572</ele><time>2026-04-16T11:53:14Z</time></trkpt><trkpt lat="44.67280440747172" lon="8.466294463592662"><ele>164.42857142857144</ele><time>2026-04-16T11:53:19Z</time></trkpt><trkpt lat="44.672859160063446" lon="8.466234500893938"><ele>164.14285714285717</ele><time>2026-04-16T11:53:25Z</time></trkpt><trkpt lat="44.67291996081198" lon="8.466167217485888"><ele>163.85714285714286</ele><time>2026-04-16T11:53:31Z</time></trkpt><trkpt lat="44.672975853924044" lon="8.466110885325673"><ele>163.57142857142856</ele><time>2026-04-16T11:53:36Z</time></trkpt><trkpt lat="44.673038733842" lon="8.466070526824625"><ele>163.2857142857143</ele><time>2026-04-16T11:53:42Z</time></trkpt><trkpt lat="44.6731060815197" lon="8.466038029883611"><ele>163.0</ele><time>2026-04-16T11:53:47Z</time></trkpt><trkpt lat="44.67317034110986" lon="8.466023020093813"><ele>163.0</ele><time>2026-04-16T11:53:52Z</time></trkpt><trkpt lat="44.67323847837076" lon="8.466008180022351"><ele>163.0</ele><time>2026-04-16T11:53:57Z</time></trkpt><trkpt lat="44.67329920709785" lon="8.46604810865907"><ele>163.0</ele><time>2026-04-16T11:54:02Z</time></trkpt><trkpt lat="44.67337134079029" lon="8.466021784116268"><ele>163.0</ele><time>2026-04-16T11:54:08Z</time></trkpt><trkpt lat="44.673444581454895" lon="8.466034310703192"><ele>163.0</ele><time>2026-04-16T11:54:13Z</time></trkpt><trkpt lat="44.673501272053656" lon="8.466073810032679"><ele>163.0</ele><time>2026-04-16T11:54:19Z</time></trkpt><trkpt lat="44.6735494789834" lon="8.466131550230271"><ele>163.0</ele><time>2026-04-16T11:54:26Z</time></trkpt><trkpt lat="44.67361195808298" lon="8.466155348259079"><ele>163.2857142857143</ele><time>2026-04-16T11:54:31Z</time></trkpt><trkpt lat="44.67367685782597" lon="8.46615872467805"><ele>163.57142857142856</ele><time>2026-04-16T11:54:36Z</time></trkpt><trkpt lat="44.67374690796879" lon="8.466172661139883"><ele>163.85714285714286</ele><time>2026-04-16T11:54:43Z</time></trkpt><trkpt lat="44.673812036311666" lon="8.466211253797159"><ele>164.14285714285717</ele><time>2026-04-16T11:54:49Z</time></trkpt><trkpt lat="44.67389420080865" lon="8.466236277197607"><ele>164.42857142857144</ele><time>2026-04-16T11:54:55Z</time></trkpt><trkpt lat="44.673958098889216" lon="8.466200985789179"><ele>164.71428571428572</ele><time>2026-04-16T11:55:00Z</time></trkpt><trkpt lat="44.67403288225809" lon="8.466182890029627"><ele>165.0</ele><time>2026-04-16T11:55:06Z</time></trkpt><trkpt lat="44.67409183418264" lon="8.466224551870715"><ele>165.00000000000003</ele><time>2026-04-16T11:55:11Z</time></trkpt><trkpt lat="44.67416506491521" lon="8.466262008021863"><ele>165.0</ele><time>2026-04-16T11:55:16Z</time></trkpt><trkpt lat="44.6742303985476" lon="8.466280871245797"><ele>165.0</ele><time>2026-04-16T11:55:21Z</time></trkpt><trkpt lat="44.67429476155196" lon="8.466294355352067"><ele>165.0</ele><time>2026-04-16T11:55:27Z</time></trkpt><trkpt lat="44.67435908994306" lon="8.46628625399223"><ele>165.0</ele><time>2026-04-16T11:55:31Z</time></trkpt><trkpt lat="44.67442565423345" lon="8.46631239115137"><ele>165.00000000000003</ele><time>2026-04-16T11:55:37Z</time></trkpt><trkpt lat="44.67449360439741" lon="8.466264338888557"><ele>165.0</ele><time>2026-04-16T11:55:41Z</time></trkpt><trkpt lat="44.67454557695406" lon="8.466317976614253"><ele>164.71428571428572</ele><time>2026-04-16T11:55:46Z</time></trkpt><trkpt lat="44.674620158466055" lon="8.466327792205625"><ele>164.42857142857144</ele><time>2026-04-16T11:55:52Z</time></trkpt><trkpt lat="44.67469278703707" lon="8.466362263021322"><ele>164.14285714285717</ele><time>2026-04-16T11:55:58Z</time></trkpt><trkpt lat="44.67475943038973" lon="8.46639493309502"><ele>163.85714285714286</ele><time>2026-04-16T11:56:05Z</time></trkpt><trkpt lat="44.67480306846964" lon="8.466458853683733"><ele>163.57142857142856</ele><time>2026-04-16T11:56:10Z</time></trkpt><trkpt lat="44.674872235730604" lon="8.466455896855203"><ele>163.2857142857143</ele><time>2026-04-16T11:56:15Z</time></trkpt><trkpt lat="44.674943495532524" lon="8.466459189417977"><ele>163.0</ele><time>2026-04-16T11:56:21Z</time></trkpt><trkpt lat="44.67501615983037" lon="8.46648621963363"><ele>163.0</ele><time>2026-04-16T11:56:26Z</time></trkpt><trkpt lat="44.675088724199476" lon="8.466501546868336"><ele>163.0</ele><time>2026-04-16T11:56:31Z</time></trkpt><trkpt lat="44.67515485680639" lon="8.466536589234538"><ele>163.0</ele><time>2026-04-16T11:56:36Z</time></trkpt><trkpt lat="44.67522085774098" lon="8.46658899066671"><ele>163.0</ele><time>2026-04-16T11:56:43Z</time></trkpt><trkpt lat="44.67528739068854" lon="8.466576139241042"><ele>163.0</ele><time>2026-04-16T11:56:49Z</time></trkpt><trkpt lat="44.67534882400127" lon="8.46660404610957"><ele>163.0</ele><time>2026-04-16T11:56:55Z</time></trkpt><trkpt lat="44.67541814973326" lon="8.466614456334458"><ele>163.0</ele><time>2026-04-16T11:57:00Z</time></trkpt><trkpt lat="44.67547840420289" lon="8.466646645691549"><ele>163.2857142857143</ele><time>2026-04-16T11:57:06Z</time></trkpt><trkpt lat="44.67554693809784" lon="8.466656638513209"><ele>163.57142857142856</ele><time>2026-04-16T11:57:11Z</time></trkpt><trkpt lat="44.675621824318824" lon="8.466691721671012"><ele>163.85714285714286</ele><time>2026-04-16T11:57:18Z</time></trkpt><trkpt lat="44.675695357075085" lon="8.466667325737138"><ele>164.14285714285717</ele><time>2026-04-16T11:57:24Z</time></trkpt><trkpt lat="44.67576539194127" lon="8.466711374150902"><ele>164.42857142857144</ele><time>2026-04-16T11:57:30Z</time></trkpt><trkpt lat="44.67582397348769" lon="8.466763539508786"><ele>164.71428571428572</ele><time>2026-04-16T11:57:36Z</time></trkpt><trkpt lat="44.6758892802486" lon="8.466782934783556"><ele>165.0</ele><time>2026-04-16T11:57:42Z</time></trkpt><trkpt lat="44.67596270963839" lon="8.466803401050841"><ele>165.0</ele><time>2026-04-16T11:57:49Z</time></trkpt><trkpt lat="44.67604087916928" lon="8.466794494497005"><ele>165.0</ele><time>2026-04-16T11:57:53Z</time></trkpt><trkpt lat="44.67611189752285" lon="8.466826526389344"><ele>165.0</ele><time>2026-04-16T11:58:00Z</time></trkpt><trkpt lat="44.67617224011165" lon="8.46687764599558"><ele>165.0</ele><time>2026-04-16T11:58:05Z</time></trkpt><trkpt lat="44.67624371584699" lon="8.466908551500069"><ele>165.0</ele><time>2026-04-16T11:58:10Z</time></trkpt><trkpt lat="44.676313740009505" lon="8.466812116076623"><ele>165.0</ele><time>2026-04-16T11:58:15Z</time></trkpt><trkpt lat="44.676354353012705" lon="8.466716628559487"><ele>165.00000000000003</ele><time>2026-04-16T11:58:20Z</time></trkpt><trkpt lat="44.67638526918584" lon="8.466634071102428"><ele>165.0</ele><time>2026-04-16T11:58:25Z</time></trkpt><trkpt lat="44.67640564818789" lon="8.466525765723874"><ele>165.0</ele><time>2026-04-16T11:58:33Z</time></trkpt><trkpt lat="44.67641597255478" lon="8.466434337298153"><ele>165.0</ele><time>2026-04-16T11:58:40Z</time></trkpt><trkpt lat="44.676447730283805" lon="8.466348931569383"><ele>165.0</ele><time>2026-04-16T11:58:46Z</time></trkpt><trkpt lat="44.6764470637442" lon="8.466245885989844"><ele>165.00000000000003</ele><time>2026-04-16T11:58:52Z</time></trkpt><trkpt lat="44.676460719012894" lon="8.46615182846304"><ele>165.0</ele><time>2026-04-16T11:58:58Z</time></trkpt><trkpt lat="44.67647617389258" lon="8.466055331468215"><ele>164.71428571428572</ele><time>2026-04-16T11:59:04Z</time></trkpt><trkpt lat="44.67648129615804" lon="8.465961829666663"><ele>164.42857142857144</ele><time>2026-04-16T11:59:10Z</time></trkpt><trkpt lat="44.67653064150062" lon="8.465902639051873"><ele>164.14285714285717</ele><time>2026-04-16T11:59:19Z</time></trkpt><trkpt lat="44.67656672366716" lon="8.465819538117996"><ele>163.85714285714286</ele><time>2026-04-16T11:59:25Z</time></trkpt><trkpt lat="44.67658840260093" lon="8.465735084887168"><ele>163.57142857142856</ele><time>2026-04-16T11:59:33Z</time></trkpt><trkpt lat="44.67657129654943" lon="8.465647817057924"><ele>163.2857142857143</ele><time>2026-04-16T11:59:40Z</time></trkpt><trkpt lat="44.67662812473775" lon="8.465603548941765"><ele>163.0</ele><time>2026-04-16T12:00:02Z</time></trkpt><trkpt lat="44.67669536906732" lon="8.465640836692096"><ele>163.0</ele><time>2026-04-16T12:00:07Z</time></trkpt><trkpt lat="44.67676212868503" lon="8.465701023464371"><ele>163.0</ele><time>2026-04-16T12:00:14Z</time></trkpt><trkpt lat="44.67681444087731" lon="8.465757142409327"><ele>163.0</ele><time>2026-04-16T12:00:19Z</time></trkpt><trkpt lat="44.6768727602915" lon="8.465806692612059"><ele>163.0</ele><time>2026-04-16T12:00:25Z</time></trkpt><trkpt lat="44.67692211994344" lon="8.465862515726824"><ele>163.0</ele><time>2026-04-16T12:00:31Z</time></trkpt><trkpt lat="44.6769883385779" lon="8.46589527847248"><ele>163.0</ele><time>2026-04-16T12:00:37Z</time></trkpt><trkpt lat="44.6770305168589" lon="8.465828603151879"><ele>163.0</ele><time>2026-04-16T12:00:43Z</time></trkpt><trkpt lat="44.677043061191036" lon="8.465741737050482"><ele>160.0</ele><time>2026-04-16T12:00:51Z</time></trkpt></trkseg></trk></gpx>